Time;durP1;ratioP1;P1;durP2;ratioP2;P2;SDS_P1;SDS_P2;PMS_P1;PMS_P2;Temp;Humidity;BMP_temperature;BMP_pressure;BME280_temperature;BME280_humidity;BME280_pressure;Samples;Min_cycle;Max_cycle;Signal;HPM_P1;HPM_P2
2022/04/25 00:01:54;;;;;;;0.67;0.50;;;8.80;99.90;;;;;;5035298;28;20475;-83
2022/04/25 00:04:21;;;;;;;0.30;0.30;;;8.90;99.90;;;;;;5034841;28;20451;-84
2022/04/25 00:06:48;;;;;;;0.30;0.27;;;8.80;99.90;;;;;;5035124;28;20486;-84
2022/04/25 00:09:14;;;;;;;0.40;0.30;;;8.80;99.90;;;;;;5034569;28;20945;-83
2022/04/25 00:11:43;;;;;;;0.30;0.20;;;8.90;99.90;;;;;;5034830;28;20489;-83
2022/04/25 00:14:11;;;;;;;0.30;0.30;;;8.90;99.90;;;;;;5034786;28;20481;-83
2022/04/25 00:16:38;;;;;;;0.47;0.47;;;8.80;99.90;;;;;;5034666;28;20450;-83
2022/04/25 00:19:04;;;;;;;0.30;0.30;;;8.90;99.90;;;;;;5034348;28;20802;-84
2022/04/25 00:21:32;;;;;;;0.70;0.30;;;8.90;99.90;;;;;;5035113;28;20462;-83
2022/04/25 00:23:58;;;;;;;0.40;0.33;;;8.90;99.90;;;;;;5034577;28;20505;-83
2022/04/25 00:26:25;;;;;;;0.60;0.30;;;8.90;99.90;;;;;;5034305;28;20945;-84
2022/04/25 00:28:53;;;;;;;2.00;0.67;;;8.90;99.90;;;;;;5034387;28;20454;-83
2022/04/25 00:31:20;;;;;;;0.30;0.30;;;8.90;99.90;;;;;;5034402;28;20487;-84
2022/04/25 00:33:47;;;;;;;0.40;0.33;;;8.80;99.90;;;;;;5034008;28;20889;-84
2022/04/25 00:36:14;;;;;;;0.30;0.30;;;8.90;99.90;;;;;;5034352;28;20454;-83
2022/04/25 00:38:40;;;;;;;0.30;0.20;;;8.80;99.90;;;;;;5033992;28;20959;-84
2022/04/25 00:41:07;;;;;;;1.67;0.30;;;8.80;99.90;;;;;;5034405;28;20443;-82
2022/04/25 00:43:34;;;;;;;0.50;0.30;;;8.90;99.90;;;;;;5034677;28;20454;-84
2022/04/25 00:46:03;;;;;;;0.60;0.37;;;8.90;99.90;;;;;;5034086;28;20434;-84
2022/04/25 00:48:30;;;;;;;0.63;0.43;;;8.90;99.90;;;;;;5034027;28;20497;-83
2022/04/25 00:50:57;;;;;;;6.73;1.07;;;8.90;99.90;;;;;;5033845;28;20483;-83
2022/04/25 00:53:24;;;;;;;1.10;0.77;;;8.90;99.90;;;;;;5033605;28;20488;-84
2022/04/25 00:55:51;;;;;;;1.00;0.90;;;8.90;99.90;;;;;;5034057;28;20445;-84
2022/04/25 00:58:18;;;;;;;1.10;0.70;;;8.90;99.90;;;;;;5033721;28;20461;-83
2022/04/25 01:00:46;;;;;;;3.60;0.80;;;8.90;99.90;;;;;;5033730;28;20442;-83
2022/04/25 01:03:14;;;;;;;0.50;0.50;;;8.90;99.90;;;;;;5033884;28;20486;-84
2022/04/25 01:05:41;;;;;;;0.40;0.40;;;8.90;99.90;;;;;;5033820;28;20455;-84
2022/04/25 01:08:08;;;;;;;1.47;0.50;;;8.80;99.90;;;;;;5033679;28;20455;-83
2022/04/25 01:10:35;;;;;;;0.63;0.60;;;8.80;99.90;;;;;;5033299;28;20490;-84
2022/04/25 01:13:02;;;;;;;0.97;0.70;;;8.80;99.90;;;;;;5033581;28;20466;-83
2022/04/25 01:15:30;;;;;;;0.70;0.60;;;8.80;99.90;;;;;;5033597;28;20462;-84
2022/04/25 01:17:57;;;;;;;0.70;0.50;;;8.80;99.90;;;;;;5033676;28;20931;-83
2022/04/25 01:20:25;;;;;;;1.10;0.70;;;8.80;99.90;;;;;;5033732;28;20447;-84
2022/04/25 01:27:15;;;;;;;0.90;0.40;;;8.80;99.90;;;;;;5033565;28;20470;-83
2022/04/25 01:28:31;;;;;;;1.90;1.13;;;8.80;99.90;;;;;;5033360;28;20438;-83
2022/04/25 01:30:57;;;;;;;1.23;0.60;;;8.80;99.90;;;;;;5033462;28;20478;-84
2022/04/25 01:33:24;;;;;;;0.70;0.70;;;8.80;99.90;;;;;;5033094;28;20470;-83
2022/04/25 01:35:51;;;;;;;1.00;0.60;;;8.80;99.90;;;;;;5033078;28;20435;-84
2022/04/25 01:38:18;;;;;;;1.53;1.50;;;8.70;99.90;;;;;;5033078;28;20937;-84
2022/04/25 01:40:46;;;;;;;1.70;1.13;;;8.70;99.90;;;;;;5033235;28;20453;-83
2022/04/25 01:43:12;;;;;;;0.60;0.50;;;8.70;99.90;;;;;;5033326;28;20564;-84
2022/04/25 01:45:40;;;;;;;0.80;0.80;;;8.70;99.90;;;;;;5032993;28;20489;-84
2022/04/25 01:48:08;;;;;;;2.20;1.13;;;8.70;99.90;;;;;;5033462;28;20443;-84
2022/04/25 01:50:34;;;;;;;0.93;0.87;;;8.70;99.90;;;;;;5032957;28;20466;-84
2022/04/25 01:53:01;;;;;;;0.60;0.60;;;8.70;99.90;;;;;;5015465;28;20474;-84
2022/04/25 01:55:28;;;;;;;1.77;1.67;;;8.70;99.90;;;;;;5033081;28;20439;-84
2022/04/25 01:57:56;;;;;;;0.80;0.40;;;8.70;99.90;;;;;;5033177;28;20829;-84
2022/04/25 02:00:23;;;;;;;0.70;0.70;;;8.70;99.90;;;;;;5033300;28;20442;-84
2022/04/25 02:02:50;;;;;;;0.73;0.63;;;8.70;99.90;;;;;;5033741;28;20454;-84
2022/04/25 02:05:16;;;;;;;0.40;0.40;;;8.70;99.90;;;;;;5037201;28;20450;-84
2022/04/25 02:07:43;;;;;;;1.00;1.00;;;8.60;99.90;;;;;;5037073;28;20430;-84
2022/04/25 02:10:10;;;;;;;0.50;0.50;;;8.60;99.90;;;;;;5037252;28;20442;-84
2022/04/25 02:12:37;;;;;;;0.63;0.57;;;8.50;99.90;;;;;;5037310;28;20478;-84
2022/04/25 02:15:12;;;;;;;0.97;0.97;;;8.50;99.90;;;;;;5037304;28;20454;-84
2022/04/25 02:17:39;;;;;;;1.40;0.70;;;8.40;99.90;;;;;;5036820;28;20430;-84
2022/04/25 02:20:07;;;;;;;0.50;0.50;;;8.30;99.90;;;;;;5036787;28;20934;-83
2022/04/25 02:22:35;;;;;;;0.70;0.70;;;8.20;99.90;;;;;;5036824;28;20465;-84
2022/04/25 02:25:02;;;;;;;0.67;0.60;;;8.20;99.90;;;;;;5036920;28;20861;-84
2022/04/25 02:27:29;;;;;;;1.10;1.07;;;8.10;99.90;;;;;;5036499;28;20984;-84
2022/04/25 02:29:58;;;;;;;0.40;0.30;;;8.00;99.90;;;;;;5036623;28;20446;-84
2022/04/25 02:32:27;;;;;;;0.50;0.40;;;7.90;99.90;;;;;;5036342;28;21029;-84
2022/04/25 02:34:55;;;;;;;1.77;0.90;;;7.90;99.90;;;;;;5036728;28;20451;-84
2022/04/25 02:37:22;;;;;;;0.73;0.50;;;7.90;99.90;;;;;;5036304;28;20483;-84
2022/04/25 02:39:49;;;;;;;0.63;0.63;;;7.90;99.90;;;;;;5036183;28;20458;-86
2022/04/25 02:42:15;;;;;;;1.93;1.10;;;7.90;99.90;;;;;;5037017;28;20553;-86
2022/04/25 02:44:42;;;;;;;0.70;0.70;;;7.90;99.90;;;;;;5036142;28;20466;-86
2022/04/25 02:47:09;;;;;;;0.77;0.60;;;8.00;99.90;;;;;;5036164;28;20445;-86
2022/04/25 02:49:37;;;;;;;3.80;0.90;;;8.00;99.90;;;;;;5036437;28;20447;-86
2022/04/25 02:52:05;;;;;;;0.50;0.40;;;8.10;99.90;;;;;;5035998;28;20867;-86
2022/04/25 02:54:32;;;;;;;0.53;0.53;;;8.10;99.90;;;;;;5036313;28;20457;-86
2022/04/25 02:57:00;;;;;;;0.60;0.57;;;8.10;99.90;;;;;;5035950;28;21020;-86
2022/04/25 02:59:27;;;;;;;0.87;0.40;;;8.10;99.90;;;;;;5036164;28;20458;-86
2022/04/25 03:01:54;;;;;;;3.10;1.00;;;8.10;99.90;;;;;;5035793;28;20974;-86
2022/04/25 03:04:20;;;;;;;0.40;0.40;;;8.00;99.90;;;;;;5035915;28;20450;-86
2022/04/25 03:06:48;;;;;;;0.60;0.60;;;8.00;99.90;;;;;;5035649;28;20800;-86
2022/04/25 03:09:15;;;;;;;0.73;0.73;;;7.90;99.90;;;;;;5035706;28;20434;-87
2022/04/25 03:11:42;;;;;;;0.40;0.33;;;7.90;99.90;;;;;;5035830;28;20497;-86
2022/04/25 03:14:09;;;;;;;0.60;0.60;;;7.90;99.90;;;;;;5035195;28;20458;-86
2022/04/25 03:16:35;;;;;;;1.10;0.57;;;7.80;99.90;;;;;;5035523;28;20454;-86
2022/04/25 03:19:02;;;;;;;1.37;0.77;;;7.80;99.90;;;;;;5035940;28;20450;-86
2022/04/25 03:21:29;;;;;;;2.73;0.57;;;7.70;99.90;;;;;;5035376;28;20978;-86
2022/04/25 03:23:58;;;;;;;0.40;0.33;;;7.60;99.90;;;;;;5035757;28;20508;-86
2022/04/25 03:26:25;;;;;;;0.30;0.30;;;7.60;99.90;;;;;;5035505;28;20935;-86
2022/04/25 03:28:52;;;;;;;0.70;0.60;;;7.60;99.90;;;;;;5035676;28;20438;-86
2022/04/25 03:31:18;;;;;;;0.50;0.50;;;7.50;99.90;;;;;;5035298;28;20492;-86
2022/04/25 03:33:45;;;;;;;1.10;0.73;;;7.50;99.90;;;;;;5035264;28;20443;-86
2022/04/25 03:36:12;;;;;;;0.30;0.30;;;7.50;99.90;;;;;;5035400;28;20458;-86
2022/04/25 03:38:42;;;;;;;0.90;0.90;;;7.50;99.90;;;;;;5035361;28;20447;-86
2022/04/25 03:41:10;;;;;;;0.90;0.90;;;7.40;99.90;;;;;;5035543;28;20463;-86
2022/04/25 03:43:37;;;;;;;3.87;2.47;;;7.40;99.90;;;;;;5035194;28;20457;-86
2022/04/25 03:46:04;;;;;;;2.10;1.40;;;7.40;99.90;;;;;;5035318;28;20454;-86
2022/04/25 03:48:31;;;;;;;1.10;0.67;;;7.50;99.90;;;;;;5035222;28;20485;-86
2022/04/25 03:50:58;;;;;;;0.90;0.80;;;7.50;99.90;;;;;;5035033;28;20486;-86
2022/04/25 03:53:25;;;;;;;0.60;0.60;;;7.50;99.90;;;;;;5034681;28;20466;-86
2022/04/25 03:58:37;;;;;;;0.87;0.60;;;7.50;99.90;;;;;;5035062;28;20410;-86
2022/04/25 04:01:04;;;;;;;0.43;0.43;;;7.50;99.90;;;;;;5034969;28;20478;-86
2022/04/25 04:03:33;;;;;;;1.43;1.43;;;7.50;99.90;;;;;;5034987;28;20454;-86
2022/04/25 04:06:00;;;;;;;1.13;1.00;;;7.50;99.90;;;;;;5034647;28;20446;-86
2022/04/25 04:08:26;;;;;;;1.50;0.93;;;7.50;99.90;;;;;;5034914;28;20485;-86
2022/04/25 04:10:53;;;;;;;0.40;0.40;;;7.50;99.90;;;;;;5034510;28;20794;-85
2022/04/25 04:13:20;;;;;;;2.10;1.20;;;7.50;99.90;;;;;;5034446;28;21004;-86
2022/04/25 04:15:48;;;;;;;0.47;0.43;;;7.60;99.90;;;;;;5034716;28;20446;-86
2022/04/25 04:18:15;;;;;;;1.30;1.30;;;7.60;99.90;;;;;;5034368;28;20455;-86
2022/04/25 04:20:41;;;;;;;0.43;0.43;;;7.60;99.90;;;;;;5034536;28;20477;-86
2022/04/25 04:23:08;;;;;;;0.50;0.50;;;7.60;99.90;;;;;;5034419;28;20467;-86
2022/04/25 04:25:35;;;;;;;0.90;0.50;;;7.70;99.90;;;;;;5034346;28;20451;-86
2022/04/25 04:28:02;;;;;;;2.23;0.63;;;7.70;99.90;;;;;;5033400;28;20957;-86
2022/04/25 04:30:29;;;;;;;1.87;0.90;;;7.70;99.90;;;;;;5034453;28;20457;-86
2022/04/25 04:32:57;;;;;;;2.23;0.60;;;7.80;99.90;;;;;;5033941;28;20577;-86
2022/04/25 04:38:08;;;;;;;1.70;0.60;;;7.80;99.90;;;;;;5034182;28;20410;-85
2022/04/25 04:40:35;;;;;;;1.30;0.80;;;7.90;99.90;;;;;;5034248;28;20957;-86
2022/04/25 04:43:02;;;;;;;0.63;0.63;;;7.90;99.90;;;;;;5034190;28;20482;-86
2022/04/25 04:45:30;;;;;;;0.97;0.97;;;8.00;99.90;;;;;;5033598;28;21015;-86
2022/04/25 04:47:58;;;;;;;0.40;0.40;;;8.00;99.90;;;;;;5033855;28;20798;-85
2022/04/25 04:50:25;;;;;;;0.80;0.40;;;8.00;99.90;;;;;;5034063;28;20443;-86
2022/04/25 04:52:53;;;;;;;2.93;0.47;;;8.00;99.90;;;;;;5033723;28;20486;-86
2022/04/25 04:55:20;;;;;;;1.20;0.70;;;8.10;99.90;;;;;;5033868;28;20450;-86
2022/04/25 04:57:47;;;;;;;0.90;0.90;;;8.10;99.90;;;;;;5034074;28;20455;-86
2022/04/25 05:00:16;;;;;;;1.40;0.43;;;8.10;99.90;;;;;;5033683;28;20435;-86
2022/04/25 05:02:44;;;;;;;0.97;0.70;;;8.20;99.90;;;;;;5033615;28;20969;-86
2022/04/25 05:05:13;;;;;;;1.03;0.60;;;8.20;99.90;;;;;;5033949;28;20488;-86
2022/04/25 05:07:40;;;;;;;1.23;0.87;;;8.20;99.90;;;;;;5034370;28;20455;-86
2022/04/25 05:10:08;;;;;;;0.73;0.73;;;8.30;99.90;;;;;;5033749;28;20454;-86
2022/04/25 05:12:49;;;;;;;1.00;0.93;;;8.30;99.90;;;;;;5033398;28;20499;-85
2022/04/25 05:15:16;;;;;;;0.40;0.40;;;8.30;99.90;;;;;;5033761;28;20887;-86
2022/04/25 05:17:44;;;;;;;0.63;0.63;;;8.30;99.90;;;;;;5033295;28;20946;-86
2022/04/25 05:20:13;;;;;;;1.57;1.47;;;8.40;99.90;;;;;;5033377;28;20952;-86
2022/04/25 05:22:44;;;;;;;0.60;0.57;;;8.50;99.90;;;;;;5033608;28;20831;-86
2022/04/25 05:25:12;;;;;;;0.70;0.60;;;8.50;99.90;;;;;;5033704;28;20482;-86
2022/04/25 05:27:39;;;;;;;0.40;0.37;;;8.50;99.90;;;;;;5033638;28;20447;-84
2022/04/25 05:30:07;;;;;;;1.37;0.53;;;8.50;99.90;;;;;;5033724;28;20447;-84
2022/04/25 05:32:42;;;;;;;2.83;1.90;;;8.60;99.90;;;;;;5033223;28;20485;-84
2022/04/25 05:35:09;;;;;;;2.83;1.10;;;8.60;99.90;;;;;;5033636;28;20458;-84
2022/04/25 05:37:37;;;;;;;0.87;0.83;;;8.60;99.90;;;;;;5033167;28;20443;-83
2022/04/25 05:40:05;;;;;;;2.53;2.40;;;8.60;99.90;;;;;;5033493;28;20819;-84
2022/04/25 05:42:32;;;;;;;1.80;0.60;;;8.60;99.90;;;;;;5033267;28;20477;-83
2022/04/25 05:44:59;;;;;;;0.80;0.80;;;8.70;99.90;;;;;;5032981;28;20486;-84
2022/04/25 05:47:26;;;;;;;1.07;1.07;;;8.70;99.90;;;;;;5033354;28;20465;-84
2022/04/25 05:52:39;;;;;;;0.70;0.60;;;8.80;99.90;;;;;;5033361;28;20485;-84
2022/04/25 05:55:06;;;;;;;1.00;1.00;;;8.80;99.90;;;;;;5033245;28;20453;-83
2022/04/25 05:57:33;;;;;;;1.10;1.00;;;8.80;99.90;;;;;;5032980;28;20451;-84
2022/04/25 06:00:00;;;;;;;2.37;2.17;;;8.90;99.90;;;;;;5033231;28;20451;-84
2022/04/25 06:02:26;;;;;;;0.70;0.70;;;9.00;99.90;;;;;;5033167;28;20477;-84
2022/04/25 06:04:53;;;;;;;1.50;1.40;;;9.10;99.90;;;;;;5033299;28;20450;-84
2022/04/25 06:07:20;;;;;;;0.70;0.70;;;9.10;99.90;;;;;;5032936;28;20435;-83
2022/04/25 06:09:48;;;;;;;1.00;0.73;;;9.20;99.90;;;;;;5033107;28;20451;-83
2022/04/25 06:12:14;;;;;;;1.47;0.83;;;9.30;99.90;;;;;;5033084;28;20482;-83
2022/04/25 06:14:41;;;;;;;4.83;1.23;;;9.30;99.90;;;;;;5033183;28;20451;-83
2022/04/25 06:17:08;;;;;;;0.90;0.70;;;9.30;99.90;;;;;;5032812;28;20435;-83
2022/04/25 06:19:35;;;;;;;1.50;0.80;;;9.40;99.90;;;;;;5032856;28;20934;-84
2022/04/25 06:22:01;;;;;;;0.83;0.40;;;9.30;99.90;;;;;;5033105;28;20466;-84
2022/04/25 06:24:28;;;;;;;0.70;0.70;;;9.30;99.90;;;;;;5032887;28;20442;-84
2022/04/25 06:26:57;;;;;;;0.80;0.80;;;9.30;99.90;;;;;;5033089;28;20450;-84
2022/04/25 06:29:24;;;;;;;1.53;0.80;;;9.40;99.90;;;;;;5033185;28;20436;-84
2022/04/25 06:31:51;;;;;;;1.40;1.30;;;9.40;99.90;;;;;;5032861;28;20479;-84
2022/04/25 06:34:18;;;;;;;3.73;1.40;;;9.50;99.90;;;;;;5033082;28;20446;-84
2022/04/25 06:53:20;;;;;;;0.60;0.60;;;9.90;99.90;;;;;;6152095;23;20406;31
2022/04/25 06:55:47;;;;;;;0.70;0.63;;;10.00;99.90;;;;;;5014610;28;20472;-73
2022/04/25 06:58:14;;;;;;;1.70;1.27;;;10.00;99.90;;;;;;5016141;28;20447;-73
2022/04/25 07:00:40;;;;;;;0.63;0.50;;;10.00;99.90;;;;;;5016054;28;20531;-73
2022/04/25 07:03:07;;;;;;;1.03;0.93;;;10.00;99.90;;;;;;5015960;28;20468;-73
2022/04/25 07:05:34;;;;;;;2.10;1.37;;;10.10;99.90;;;;;;5016023;28;20819;-73
2022/04/25 07:08:01;;;;;;;1.00;1.00;;;10.20;99.90;;;;;;5015668;28;20943;-73
2022/04/25 07:10:29;;;;;;;1.63;0.80;;;10.30;99.90;;;;;;5015981;28;20473;-73
2022/04/25 07:12:56;;;;;;;0.60;0.60;;;10.50;99.90;;;;;;5015955;28;20491;-73
2022/04/25 07:15:23;;;;;;;3.37;0.83;;;11.10;99.90;;;;;;5015880;28;20452;-73
2022/04/25 07:17:55;;;;;;;3.23;1.10;;;11.70;99.90;;;;;;5015471;28;20943;-73
2022/04/25 07:20:21;;;;;;;3.63;1.07;;;12.00;99.90;;;;;;5015759;28;20440;-74
2022/04/25 07:31:02;;;;;;;1.53;1.43;;;11.50;99.90;;;;;;5015646;28;20930;-73
2022/04/25 07:33:30;;;;;;;2.30;1.03;;;11.30;99.90;;;;;;5015320;28;20491;-73
2022/04/25 07:35:57;;;;;;;2.87;1.10;;;11.20;99.90;;;;;;5015451;28;20447;-73
2022/04/25 07:38:24;;;;;;;1.70;1.60;;;11.30;99.90;;;;;;5015436;28;20459;-73
2022/04/25 07:40:52;;;;;;;1.20;1.10;;;11.40;99.90;;;;;;5015436;28;20483;-73
2022/04/25 07:43:19;;;;;;;2.17;0.93;;;11.50;99.90;;;;;;5015298;28;20468;-74
2022/04/25 07:45:45;;;;;;;4.13;1.83;;;11.60;99.90;;;;;;5015286;28;20448;-73
2022/04/25 07:48:12;;;;;;;3.93;1.50;;;11.40;99.90;;;;;;5015241;28;20946;-73
2022/04/25 07:50:39;;;;;;;1.73;0.90;;;11.20;99.90;;;;;;5014897;28;20942;-73
2022/04/25 07:53:06;;;;;;;2.50;1.60;;;11.20;99.90;;;;;;5015063;28;20926;-74
2022/04/25 07:55:33;;;;;;;0.60;0.60;;;11.10;99.90;;;;;;5014638;28;20841;-74
2022/04/25 07:58:01;;;;;;;0.87;0.63;;;11.00;99.90;;;;;;5015081;28;20527;-74
2022/04/25 08:00:28;;;;;;;0.70;0.70;;;10.90;99.90;;;;;;5014805;28;20489;-73
2022/04/25 08:02:54;;;;;;;1.63;0.57;;;10.80;99.90;;;;;;5014917;28;20468;-73
2022/04/25 08:05:21;;;;;;;1.47;0.80;;;10.60;99.90;;;;;;5014635;28;20454;-73
2022/04/25 08:07:48;;;;;;;4.90;1.20;;;10.70;99.90;;;;;;5014862;28;20451;-73
2022/04/25 08:10:15;;;;;;;1.00;0.83;;;11.00;99.90;;;;;;5014851;28;20447;-73
2022/04/25 08:18:13;;;;;;;3.00;1.10;;;13.70;99.90;;;;;;5015006;28;20411;-73
2022/04/25 08:20:40;;;;;;;2.47;1.10;;;14.10;99.90;;;;;;5014337;28;20791;-74
2022/04/25 08:23:09;;;;;;;1.57;1.40;;;14.00;99.90;;;;;;5014505;28;20474;-74
2022/04/25 08:25:36;;;;;;;1.87;1.30;;;13.90;99.90;;;;;;5014507;28;20467;-73
2022/04/25 08:28:04;;;;;;;2.00;1.13;;;13.60;99.90;;;;;;5014492;28;20447;-73
2022/04/25 08:30:32;;;;;;;3.77;1.50;;;13.40;99.90;;;;;;5014477;28;20447;-73
2022/04/25 08:33:01;;;;;;;2.93;1.67;;;13.40;99.90;;;;;;5014238;28;20492;-74
2022/04/25 08:35:28;;;;;;;2.40;1.50;;;13.40;99.90;;;;;;5014395;28;20483;-73
2022/04/25 08:37:55;;;;;;;2.67;1.77;;;13.40;99.90;;;;;;5014331;28;20451;-73
2022/04/25 08:40:22;;;;;;;3.27;1.30;;;13.20;99.90;;;;;;5014266;28;20454;-73
2022/04/25 08:42:49;;;;;;;3.60;1.40;;;13.20;99.90;;;;;;5014198;28;20491;-73
2022/04/25 08:45:16;;;;;;;2.60;1.03;;;13.20;99.90;;;;;;5014150;28;20447;-73
2022/04/25 08:47:50;;;;;;;2.70;1.00;;;13.10;99.90;;;;;;5014135;28;20458;-75
2022/04/25 08:50:18;;;;;;;2.83;1.00;;;13.00;99.90;;;;;;5013899;28;20809;-73
2022/04/25 08:52:46;;;;;;;2.37;1.40;;;12.90;99.90;;;;;;5013972;28;20502;-73
2022/04/25 08:55:13;;;;;;;4.40;1.20;;;13.00;99.90;;;;;;5013697;28;20483;-73
2022/04/25 08:57:43;;;;;;;1.87;1.10;;;13.00;99.90;;;;;;5013990;28;20444;-73
2022/04/25 09:00:10;;;;;;;2.20;2.00;;;13.00;99.90;;;;;;5014049;28;20450;-73
2022/04/25 09:02:38;;;;;;;2.60;0.90;;;13.00;99.90;;;;;;5013871;28;20472;-74
2022/04/25 09:05:07;;;;;;;1.23;1.10;;;12.90;99.90;;;;;;5013640;28;20904;-73
2022/04/25 09:07:35;;;;;;;1.53;1.10;;;12.90;99.90;;;;;;5014495;28;20448;-73
2022/04/25 09:10:02;;;;;;;0.90;0.90;;;13.00;99.90;;;;;;5013816;28;20484;-74
2022/04/25 09:12:29;;;;;;;2.73;0.80;;;12.90;99.90;;;;;;5013042;28;20495;-74
2022/04/25 09:14:56;;;;;;;2.70;0.93;;;12.80;99.90;;;;;;5013766;28;20455;-74
2022/04/25 09:17:24;;;;;;;3.20;1.37;;;12.80;99.90;;;;;;5013682;28;20491;-74
2022/04/25 09:19:50;;;;;;;3.20;0.87;;;12.80;99.90;;;;;;5013775;28;20431;-73
2022/04/25 09:22:32;;;;;;;2.33;1.47;;;12.90;99.90;;;;;;5013317;28;20980;-74
2022/04/25 09:25:05;;;;;;;3.37;1.50;;;13.20;99.90;;;;;;5013680;28;20439;-74
2022/04/25 11:12:18;;;;;;;1.10;1.00;;;13.20;99.90;;;;;;5686169;23;20689;-84
2022/04/25 11:14:58;;;;;;;1.80;1.07;;;13.00;99.90;;;;;;5036480;28;20443;-84
2022/04/25 11:17:26;;;;;;;1.73;0.87;;;12.90;99.90;;;;;;5035842;28;20454;-83
2022/04/25 11:19:55;;;;;;;0.73;0.73;;;12.70;99.90;;;;;;5035611;28;20866;-82
2022/04/25 11:22:49;;;;;;;3.33;1.10;;;12.50;99.90;;;;;;5035343;28;20470;-82
2022/04/25 11:25:39;;;;;;;0.70;0.60;;;12.30;99.90;;;;;;5035666;28;20435;-82
2022/04/25 11:28:10;;;;;;;0.83;0.70;;;12.10;99.90;;;;;;5035535;28;20458;-82
2022/04/25 11:30:38;;;;;;;1.13;0.93;;;11.90;99.90;;;;;;5035536;28;20445;-82
2022/04/25 11:33:06;;;;;;;0.73;0.50;;;11.80;99.90;;;;;;5035318;28;20981;-82
2022/04/25 11:35:34;;;;;;;2.40;1.43;;;11.70;99.90;;;;;;5034530;28;20964;-82
2022/04/25 11:38:01;;;;;;;3.40;0.70;;;11.60;99.90;;;;;;5035937;28;20446;-82
2022/04/25 11:40:28;;;;;;;1.93;0.87;;;11.60;99.90;;;;;;5035048;28;20446;-82
2022/04/25 11:42:56;;;;;;;2.30;1.97;;;11.50;99.90;;;;;;5035131;28;20466;-81
2022/04/25 11:45:24;;;;;;;1.80;0.63;;;11.50;99.90;;;;;;5035169;28;20446;-81
2022/04/25 11:47:51;;;;;;;0.60;0.60;;;11.50;99.90;;;;;;5035316;28;20444;-81
2022/04/25 11:50:20;;;;;;;1.80;0.70;;;11.40;99.90;;;;;;5034789;28;20454;-82
2022/04/25 11:52:49;;;;;;;1.17;0.70;;;11.40;99.90;;;;;;5035045;28;20458;-81
2022/04/25 11:55:17;;;;;;;1.40;1.00;;;11.40;99.90;;;;;;5034819;28;20426;-82
2022/04/25 11:57:45;;;;;;;1.57;0.80;;;11.50;99.90;;;;;;5034654;28;20454;-80
2022/04/25 12:00:17;;;;;;;1.10;1.03;;;11.40;99.90;;;;;;5034633;28;20454;-81
2022/04/25 12:02:47;;;;;;;0.83;0.80;;;11.40;99.90;;;;;;5034858;28;20553;-82
2022/04/25 12:05:14;;;;;;;0.50;0.50;;;11.20;99.90;;;;;;5034599;28;20946;-82
2022/04/25 12:15:34;;;;;;;0.60;0.40;;;11.10;99.90;;;;;;5034711;28;20446;-82
2022/04/25 12:16:01;;;;;;;1.87;0.90;;;11.20;99.90;;;;;;5034454;28;20446;-85
2022/04/25 12:18:30;;;;;;;0.70;0.70;;;11.20;99.90;;;;;;5034822;28;20461;-84
2022/04/25 12:21:03;;;;;;;0.50;0.50;;;11.50;99.90;;;;;;5035028;28;20458;-85
2022/04/25 12:23:32;;;;;;;1.33;0.60;;;11.50;99.90;;;;;;5035087;28;20439;-84
2022/04/25 12:26:03;;;;;;;0.50;0.50;;;11.60;99.90;;;;;;5034664;28;20466;-84
2022/04/25 12:28:31;;;;;;;1.07;0.60;;;11.80;99.90;;;;;;5034777;28;20438;-84
2022/04/25 12:30:59;;;;;;;0.60;0.60;;;11.80;99.90;;;;;;5034852;28;20510;-84
2022/04/25 12:33:34;;;;;;;0.83;0.83;;;11.80;99.90;;;;;;5034478;28;20478;-85
2022/04/25 12:36:10;;;;;;;0.90;0.50;;;11.90;99.90;;;;;;5035019;28;20415;-84
2022/04/25 12:38:41;;;;;;;0.63;0.63;;;12.10;99.90;;;;;;5034614;28;20947;-84
2022/04/25 12:41:10;;;;;;;1.03;0.60;;;12.20;99.90;;;;;;5034786;28;20545;-84
2022/04/25 12:43:47;;;;;;;0.70;0.70;;;12.20;99.90;;;;;;5034837;28;20435;-84
2022/04/25 12:46:16;;;;;;;3.50;0.93;;;12.40;99.90;;;;;;5034699;28;20446;-84
2022/04/25 12:48:58;;;;;;;0.83;0.77;;;12.40;99.90;;;;;;5033461;28;20457;-84
2022/04/25 13:41:29;;;;;;;1.53;0.40;;;12.10;99.90;;;;;;5735067;23;20494;-84
2022/04/25 14:03:05;;;;;;;0.60;0.60;;;13.00;99.90;;;;;;5015883;28;21011;-79
2022/04/25 16:12:12;;;;;;;1.03;0.57;;;12.50;99.90;;;;;;5872576;23;20486;-75
2022/04/25 16:43:10;;;;;;;0.80;0.80;;;11.30;99.90;;;;;;5012796;28;20508;-84
2022/04/25 16:45:37;;;;;;;1.33;0.70;;;11.20;99.90;;;;;;5014444;28;20436;-84
2022/04/25 16:48:05;;;;;;;0.77;0.60;;;11.10;99.90;;;;;;5014065;28;21006;-84
2022/04/25 16:50:32;;;;;;;1.37;0.40;;;10.90;99.90;;;;;;5013975;28;20877;-84
2022/04/25 16:52:58;;;;;;;0.67;0.40;;;10.70;99.90;;;;;;5014163;28;20475;-84
2022/04/25 16:55:25;;;;;;;0.90;0.60;;;10.60;99.90;;;;;;5013711;28;20483;-84
2022/04/25 16:57:52;;;;;;;1.93;1.73;;;10.40;99.90;;;;;;5013809;28;20443;-84
2022/04/25 17:00:21;;;;;;;0.87;0.70;;;10.40;99.90;;;;;;5014163;28;20456;-83
2022/04/25 17:02:49;;;;;;;0.70;0.57;;;10.30;99.90;;;;;;5014036;28;20475;-83
2022/04/25 17:05:16;;;;;;;2.00;0.50;;;10.40;99.90;;;;;;5013799;28;20466;-83
2022/04/25 17:07:44;;;;;;;1.30;0.53;;;10.40;99.90;;;;;;5013934;28;20448;-84
2022/04/25 17:10:12;;;;;;;1.23;1.00;;;10.40;99.90;;;;;;5013846;28;20455;-84
2022/04/25 17:12:39;;;;;;;3.13;0.50;;;10.50;99.90;;;;;;5013842;28;20510;-83
2022/04/25 17:15:07;;;;;;;0.50;0.50;;;10.40;99.90;;;;;;5013523;28;20467;-83
2022/04/25 17:17:35;;;;;;;0.60;0.50;;;10.40;99.90;;;;;;5013910;28;20462;-83
